createdAt,value
2018-10-19T00:02:00.138Z,12.70
2018-10-19T00:04:28.586Z,12.50
2018-10-19T00:06:56.911Z,12.40
2018-10-19T00:09:25.445Z,12.40
2018-10-19T00:11:53.755Z,12.40
2018-10-19T00:14:22.119Z,12.40
2018-10-19T00:16:50.538Z,12.50
2018-10-19T00:19:18.891Z,12.70
2018-10-19T00:21:47.319Z,12.60
2018-10-19T00:24:15.703Z,12.50
2018-10-19T00:26:44.030Z,12.30
2018-10-19T00:29:12.580Z,12.30
2018-10-19T00:31:40.824Z,12.30
2018-10-19T00:34:09.974Z,12.30
2018-10-19T00:36:38.576Z,12.20
2018-10-19T00:39:09.078Z,12.30
2018-10-19T00:41:37.325Z,12.40
2018-10-19T00:44:05.858Z,12.40
2018-10-19T00:46:34.194Z,12.40
2018-10-19T00:49:02.719Z,12.30
2018-10-19T00:51:31.057Z,12.20
2018-10-19T00:53:59.514Z,12.20
2018-10-19T00:56:27.838Z,12.20
2018-10-19T00:58:56.218Z,12.30
2018-10-19T01:01:24.570Z,12.20
2018-10-19T01:03:52.958Z,12.20
2018-10-19T01:06:21.290Z,12.20
2018-10-19T01:08:49.721Z,12.00
2018-10-19T01:11:18.042Z,11.90
2018-10-19T01:13:46.594Z,12.00
2018-10-19T01:16:15.004Z,12.00
2018-10-19T01:18:43.361Z,11.80
2018-10-19T01:21:11.795Z,11.70
2018-10-19T01:23:40.049Z,11.70
2018-10-19T01:26:08.381Z,11.50
2018-10-19T01:28:36.705Z,11.50
2018-10-19T01:31:05.274Z,11.60
2018-10-19T01:33:33.582Z,11.70
2018-10-19T01:36:01.926Z,11.80
2018-10-19T01:38:30.303Z,11.90
2018-10-19T01:40:58.699Z,11.90
2018-10-19T01:43:27.203Z,11.90
2018-10-19T01:45:56.986Z,11.90
2018-10-19T01:48:26.030Z,11.80
2018-10-19T01:50:54.432Z,11.70
2018-10-19T01:53:22.755Z,11.70
2018-10-19T01:55:51.131Z,11.80
2018-10-19T01:58:19.758Z,11.80
2018-10-19T02:00:48.158Z,11.70
2018-10-19T02:03:16.518Z,11.70
2018-10-19T02:05:44.850Z,11.50
2018-10-19T02:08:13.191Z,11.30
2018-10-19T02:10:41.507Z,11.20
2018-10-19T02:13:10.829Z,11.20
2018-10-19T02:15:39.386Z,11.20
2018-10-19T02:18:08.062Z,11.30
2018-10-19T02:20:36.525Z,11.40
2018-10-19T02:23:05.072Z,11.40
2018-10-19T02:25:33.410Z,11.40
2018-10-19T02:28:01.907Z,11.40
2018-10-19T02:30:30.282Z,11.20
2018-10-19T02:32:58.640Z,11.20
2018-10-19T02:35:26.941Z,11.20
2018-10-19T02:37:55.275Z,11.20
2018-10-19T02:40:23.618Z,11.20
2018-10-19T02:42:51.954Z,11.20
2018-10-19T02:45:20.550Z,11.10
2018-10-19T02:47:48.863Z,11.10
2018-10-19T02:50:17.221Z,11.10
2018-10-19T02:52:45.559Z,11.10
2018-10-19T02:55:14.000Z,11.10
2018-10-19T02:57:42.351Z,11.20
2018-10-19T03:00:11.878Z,11.30
2018-10-19T03:02:40.766Z,11.30
2018-10-19T03:05:09.771Z,11.20
2018-10-19T03:07:38.281Z,11.10
2018-10-19T03:10:08.067Z,11.20
2018-10-19T03:12:36.414Z,11.10
2018-10-19T03:15:06.416Z,11.00
2018-10-19T03:17:34.837Z,11.00
2018-10-19T03:20:03.210Z,10.90
2018-10-19T03:22:31.539Z,11.00
2018-10-19T03:24:59.895Z,11.10
2018-10-19T03:27:28.206Z,11.10
2018-10-19T03:29:56.604Z,11.10
2018-10-19T03:32:24.925Z,11.10
2018-10-19T03:34:53.299Z,11.10
2018-10-19T03:37:21.725Z,11.00
2018-10-19T03:39:50.181Z,11.00
2018-10-19T03:42:18.497Z,11.00
2018-10-19T03:44:46.866Z,10.90
2018-10-19T03:47:15.363Z,10.90
2018-10-19T03:49:43.581Z,10.80
2018-10-19T03:52:11.953Z,10.90
2018-10-19T03:54:40.330Z,11.00
2018-10-19T03:57:08.779Z,11.00
2018-10-19T03:59:37.136Z,11.00
2018-10-19T04:02:05.677Z,11.00
2018-10-19T04:04:33.994Z,10.90
2018-10-19T04:07:02.361Z,10.80
2018-10-19T04:09:30.762Z,10.70
2018-10-19T04:11:59.139Z,10.70
2018-10-19T04:14:27.492Z,10.60
2018-10-19T04:16:55.958Z,10.60
2018-10-19T04:19:24.262Z,10.60
2018-10-19T04:21:52.668Z,10.60
2018-10-19T04:24:21.296Z,10.60
2018-10-19T04:26:49.634Z,10.60
2018-10-19T04:29:18.119Z,10.60
2018-10-19T04:31:46.353Z,10.50
2018-10-19T04:34:14.763Z,10.40
2018-10-19T04:36:43.234Z,10.30
2018-10-19T04:39:11.644Z,10.30
2018-10-19T04:41:40.038Z,10.30
2018-10-19T04:44:08.421Z,10.30
2018-10-19T04:46:36.845Z,10.30
2018-10-19T04:49:05.311Z,10.20
2018-10-19T04:51:33.634Z,10.20
2018-10-19T04:54:02.010Z,10.20
2018-10-19T04:56:30.333Z,10.20
2018-10-19T04:58:58.795Z,10.20
2018-10-19T05:01:27.131Z,10.20
2018-10-19T05:03:55.460Z,10.20
2018-10-19T05:06:23.852Z,10.30
2018-10-19T05:08:52.144Z,10.30
2018-10-19T05:11:20.602Z,10.20
2018-10-19T05:13:49.632Z,10.20
2018-10-19T05:16:18.202Z,10.10
2018-10-19T05:18:46.732Z,10.20
2018-10-19T05:21:15.046Z,10.10
2018-10-19T05:23:43.405Z,10.10
2018-10-19T05:26:11.858Z,10.10
2018-10-19T05:28:40.167Z,10.20
2018-10-19T05:31:08.569Z,10.30
2018-10-19T05:33:36.913Z,10.30
2018-10-19T05:36:05.699Z,10.20
2018-10-19T05:38:34.124Z,10.10
2018-10-19T05:41:02.465Z,10.00
2018-10-19T05:43:31.472Z,10.10
2018-10-19T05:45:59.902Z,10.00
2018-10-19T05:48:28.237Z,10.10
2018-10-19T05:50:56.590Z,10.20
2018-10-19T05:53:25.022Z,10.30
2018-10-19T05:55:53.368Z,10.30
2018-10-19T05:58:21.669Z,10.10
2018-10-19T06:00:50.057Z,10.00
2018-10-19T06:03:18.553Z,10.00
2018-10-19T06:05:46.894Z,10.00
2018-10-19T06:08:15.356Z,10.00
2018-10-19T06:10:43.935Z,10.00
2018-10-19T06:13:12.332Z,10.00
2018-10-19T06:15:40.728Z,10.10
2018-10-19T06:18:09.174Z,10.10
2018-10-19T06:20:37.554Z,10.10
2018-10-19T06:23:06.196Z,10.20
2018-10-19T06:25:34.585Z,10.20
2018-10-19T06:28:02.926Z,10.20
2018-10-19T06:30:31.329Z,10.20
2018-10-19T06:32:59.640Z,10.30
2018-10-19T06:35:28.051Z,10.30
2018-10-19T06:37:56.458Z,10.30
2018-10-19T06:40:24.838Z,10.50
2018-10-19T06:42:53.211Z,10.60
2018-10-19T06:45:21.672Z,10.60
2018-10-19T06:47:50.068Z,10.60
2018-10-19T06:50:18.842Z,10.70
2018-10-19T06:52:47.123Z,10.80
2018-10-19T06:55:17.046Z,10.80
2018-10-19T06:57:45.392Z,10.90
2018-10-19T07:00:14.069Z,10.80
2018-10-19T07:02:42.426Z,10.80
2018-10-19T07:05:10.858Z,10.80
2018-10-19T07:07:39.158Z,10.80
2018-10-19T07:10:08.466Z,10.70
2018-10-19T07:12:36.950Z,10.90
2018-10-19T07:15:06.930Z,11.00
2018-10-19T07:17:35.438Z,11.00
2018-10-19T07:20:04.028Z,11.10
2018-10-19T07:22:32.310Z,11.30
2018-10-19T07:25:00.688Z,11.30
2018-10-19T07:27:29.189Z,11.20
2018-10-19T07:29:57.529Z,11.20
2018-10-19T07:32:25.997Z,11.30
2018-10-19T07:34:54.627Z,11.30
2018-10-19T07:37:23.213Z,11.30
2018-10-19T07:39:51.775Z,11.40
2018-10-19T07:42:20.323Z,11.50
2018-10-19T07:44:49.754Z,11.40
2018-10-19T07:47:18.386Z,11.40
2018-10-19T07:49:46.578Z,11.50
2018-10-19T07:52:15.020Z,11.30
2018-10-19T07:54:43.371Z,11.60
2018-10-19T07:57:11.702Z,11.70
2018-10-19T07:59:40.150Z,11.40
2018-10-19T08:02:08.692Z,11.50
2018-10-19T08:04:37.015Z,11.60
2018-10-19T08:07:05.857Z,11.80
2018-10-19T08:09:34.223Z,11.80
2018-10-19T08:12:02.594Z,11.80
2018-10-19T08:14:30.993Z,11.70
2018-10-19T08:16:59.400Z,11.70
2018-10-19T08:19:27.841Z,11.80
2018-10-19T08:21:56.336Z,11.90
2018-10-19T08:24:24.688Z,12.00
2018-10-19T08:26:53.027Z,12.20
2018-10-19T08:29:21.431Z,12.20
2018-10-19T08:31:49.846Z,12.30
2018-10-19T08:34:18.189Z,12.30
2018-10-19T08:36:46.613Z,12.40
2018-10-19T08:39:14.965Z,12.60
2018-10-19T08:41:43.462Z,12.60
2018-10-19T08:44:11.742Z,12.50
2018-10-19T08:46:41.445Z,12.50
2018-10-19T08:49:11.241Z,12.50
2018-10-19T08:51:40.674Z,12.60
2018-10-19T08:54:09.545Z,12.50
2018-10-19T08:56:38.282Z,12.80
2018-10-19T08:59:06.766Z,12.90
2018-10-19T09:01:35.095Z,13.10
2018-10-19T09:04:03.532Z,13.20
2018-10-19T09:06:32.025Z,13.40
2018-10-19T09:09:00.600Z,13.50
2018-10-19T09:11:28.955Z,13.60
2018-10-19T09:13:57.262Z,14.10
2018-10-19T09:16:25.774Z,14.40
2018-10-19T09:18:54.111Z,14.40
2018-10-19T09:21:22.481Z,14.60
2018-10-19T09:23:50.816Z,16.00
2018-10-19T09:26:19.395Z,15.40
2018-10-19T09:28:47.731Z,15.00
2018-10-19T09:31:16.081Z,15.10
2018-10-19T09:33:44.461Z,15.00
2018-10-19T09:36:12.915Z,15.10
2018-10-19T09:38:41.232Z,15.70
2018-10-19T09:41:09.642Z,16.00
2018-10-19T09:43:38.037Z,15.80
2018-10-19T09:46:06.549Z,15.70
2018-10-19T09:48:34.998Z,15.80
2018-10-19T09:51:03.436Z,15.60
2018-10-19T09:53:31.761Z,15.90
2018-10-19T09:56:00.141Z,15.90
2018-10-19T09:58:28.481Z,16.50
2018-10-19T10:00:57.914Z,16.70
2018-10-19T10:03:26.973Z,16.40
2018-10-19T10:05:55.494Z,16.20
2018-10-19T10:08:24.689Z,16.10
2018-10-19T10:10:53.364Z,16.60
2018-10-19T10:13:21.924Z,16.70
2018-10-19T10:15:50.480Z,16.30
2018-10-19T10:18:18.785Z,16.40
2018-10-19T10:20:47.210Z,16.20
2018-10-19T10:23:15.763Z,17.10
2018-10-19T10:25:44.127Z,18.00
2018-10-19T10:28:12.592Z,17.20
2018-10-19T10:30:41.033Z,17.70
2018-10-19T10:33:09.547Z,17.50
2018-10-19T10:35:37.922Z,17.40
2018-10-19T10:38:06.659Z,17.10
2018-10-19T10:40:35.042Z,16.80
2018-10-19T10:43:03.648Z,16.90
2018-10-19T10:45:31.978Z,17.50
2018-10-19T10:48:01.687Z,17.60
2018-10-19T10:50:30.469Z,17.60
2018-10-19T10:52:58.938Z,17.70
2018-10-19T10:55:27.393Z,17.30
2018-10-19T10:57:55.764Z,17.30
2018-10-19T11:00:24.266Z,16.80
2018-10-19T11:02:52.679Z,16.90
2018-10-19T11:05:21.121Z,17.10
2018-10-19T11:07:49.474Z,17.20
2018-10-19T11:10:17.944Z,17.30
2018-10-19T11:12:46.233Z,17.00
2018-10-19T11:15:14.561Z,16.70
2018-10-19T11:17:42.951Z,17.40
2018-10-19T11:20:11.309Z,17.50
2018-10-19T11:22:39.681Z,17.30
2018-10-19T11:25:08.352Z,17.40
2018-10-19T11:27:37.035Z,17.30
2018-10-19T11:30:06.939Z,17.00
2018-10-19T11:32:35.370Z,16.70
2018-10-19T11:35:03.742Z,17.20
2018-10-19T11:37:32.288Z,17.10
2018-10-19T11:40:11.919Z,18.40
2018-10-19T11:42:40.311Z,17.90
2018-10-19T11:45:09.120Z,17.50
2018-10-19T11:47:37.454Z,17.20
2018-10-19T11:50:06.114Z,16.80
2018-10-19T11:52:34.475Z,16.90
2018-10-19T11:55:02.965Z,17.10
2018-10-19T11:57:31.269Z,17.00
2018-10-19T11:59:59.664Z,17.00
2018-10-19T12:02:28.091Z,17.30
2018-10-19T12:04:56.463Z,17.40
2018-10-19T12:07:24.818Z,17.10
2018-10-19T12:09:53.187Z,17.20
2018-10-19T12:12:21.606Z,16.90
2018-10-19T12:14:50.010Z,17.20
2018-10-19T12:17:18.557Z,17.40
2018-10-19T12:19:46.964Z,17.50
2018-10-19T12:22:15.312Z,17.60
2018-10-19T12:24:43.677Z,17.50
2018-10-19T12:27:12.140Z,17.50
2018-10-19T12:29:40.491Z,17.40
2018-10-19T12:32:09.518Z,17.50
2018-10-19T12:34:38.269Z,17.50
2018-10-19T12:37:07.207Z,17.60
2018-10-19T12:39:35.623Z,17.60
2018-10-19T12:42:04.250Z,17.60
2018-10-19T12:44:32.601Z,18.40
2018-10-19T12:47:12.426Z,18.10
2018-10-19T12:49:40.926Z,17.70
2018-10-19T12:52:09.258Z,17.60
2018-10-19T12:54:37.702Z,17.60
2018-10-19T12:57:06.616Z,18.20
2018-10-19T12:59:35.186Z,18.20
2018-10-19T13:02:03.972Z,18.20
2018-10-19T13:04:32.336Z,17.90
2018-10-19T13:07:00.687Z,17.80
2018-10-19T13:09:29.031Z,17.90
2018-10-19T13:11:57.477Z,17.90
2018-10-19T13:14:25.927Z,17.70
2018-10-19T13:16:54.322Z,17.80
2018-10-19T13:19:22.657Z,18.00
2018-10-19T13:21:51.035Z,18.00
2018-10-19T13:24:19.519Z,18.30
2018-10-19T13:26:47.951Z,18.30
2018-10-19T13:29:16.294Z,18.50
2018-10-19T13:31:44.663Z,18.40
2018-10-19T13:34:13.027Z,18.10
2018-10-19T13:36:41.405Z,17.90
2018-10-19T13:39:11.600Z,17.80
2018-10-19T13:41:40.451Z,17.70
2018-10-19T13:44:09.018Z,17.80
2018-10-19T13:46:37.395Z,18.20
2018-10-19T13:49:06.098Z,18.40
2018-10-19T13:51:34.878Z,18.50
2018-10-19T13:54:03.619Z,18.10
2018-10-19T13:56:32.372Z,18.00
2018-10-19T13:59:00.980Z,18.00
2018-10-19T14:01:29.410Z,18.00
2018-10-19T14:03:57.798Z,18.10
2018-10-19T14:06:26.284Z,18.30
2018-10-19T14:08:54.647Z,18.30
2018-10-19T14:11:23.006Z,18.20
2018-10-19T14:13:51.977Z,18.20
2018-10-19T14:16:20.356Z,18.50
2018-10-19T14:18:48.760Z,18.40
2018-10-19T14:21:17.274Z,18.20
2018-10-19T14:23:45.505Z,18.00
2018-10-19T14:26:13.847Z,17.90
2018-10-19T14:28:42.219Z,17.90
2018-10-19T14:31:10.634Z,18.10
2018-10-19T14:33:45.676Z,18.10
2018-10-19T14:36:14.022Z,18.20
2018-10-19T14:38:42.357Z,18.20
2018-10-19T14:41:10.847Z,18.10
2018-10-19T14:43:39.303Z,18.20
2018-10-19T14:46:08.970Z,18.30
2018-10-19T14:48:37.345Z,18.30
2018-10-19T14:51:05.700Z,18.20
2018-10-19T14:53:34.186Z,18.20
2018-10-19T14:56:02.519Z,18.30
2018-10-19T14:58:31.006Z,18.30
2018-10-19T15:00:59.595Z,18.20
2018-10-19T15:03:27.981Z,18.10
2018-10-19T15:05:56.325Z,18.10
2018-10-19T15:08:24.948Z,18.20
2018-10-19T15:10:53.378Z,18.20
2018-10-19T15:13:21.947Z,18.20
2018-10-19T15:15:50.362Z,18.20
2018-10-19T15:18:18.767Z,18.10
2018-10-19T15:20:47.109Z,18.00
2018-10-19T15:23:15.550Z,18.00
2018-10-19T15:25:43.961Z,18.00
2018-10-19T15:28:12.437Z,18.00
2018-10-19T15:30:40.817Z,17.90
2018-10-19T15:33:09.274Z,17.90
2018-10-19T15:35:37.562Z,17.70
2018-10-19T15:38:05.932Z,17.70
2018-10-19T15:40:34.581Z,17.60
2018-10-19T15:43:03.112Z,17.60
2018-10-19T15:45:31.566Z,17.50
2018-10-19T15:48:00.005Z,17.40
2018-10-19T15:50:28.366Z,17.40
2018-10-19T15:52:56.903Z,17.30
2018-10-19T15:55:25.252Z,17.30
2018-10-19T15:57:53.680Z,17.20
2018-10-19T16:00:22.262Z,17.20
2018-10-19T16:02:50.522Z,17.20
2018-10-19T16:05:18.862Z,17.20
2018-10-19T16:07:47.299Z,17.20
2018-10-19T16:10:15.664Z,17.00
2018-10-19T16:12:44.062Z,17.00
2018-10-19T16:15:12.620Z,16.90
2018-10-19T16:17:40.981Z,16.80
2018-10-19T16:20:10.470Z,16.80
2018-10-19T16:22:39.099Z,16.80
2018-10-19T16:25:08.286Z,16.70
2018-10-19T16:27:38.026Z,16.70
2018-10-19T16:30:07.649Z,16.90
2018-10-19T16:32:36.327Z,17.10
2018-10-19T16:35:04.707Z,17.20
2018-10-19T16:37:33.131Z,17.20
2018-10-19T16:40:01.509Z,17.10
2018-10-19T16:42:29.957Z,17.20
2018-10-19T16:44:58.445Z,17.10
2018-10-19T16:47:26.862Z,17.00
2018-10-19T16:49:55.206Z,17.00
2018-10-19T16:52:24.012Z,16.90
2018-10-19T16:54:52.361Z,16.80
2018-10-19T16:57:20.820Z,16.80
2018-10-19T16:59:49.463Z,16.70
2018-10-19T17:02:17.919Z,16.70
2018-10-19T17:04:46.353Z,16.60
2018-10-19T17:07:14.691Z,16.60
2018-10-19T17:09:43.050Z,16.50
2018-10-19T17:12:11.468Z,16.50
2018-10-19T17:14:39.826Z,16.40
2018-10-19T17:17:08.186Z,16.30
2018-10-19T17:19:36.598Z,16.30
2018-10-19T17:22:05.386Z,16.20
2018-10-19T17:24:33.709Z,16.10
2018-10-19T17:27:02.203Z,16.10
2018-10-19T17:29:30.530Z,16.10
2018-10-19T17:31:58.969Z,15.90
2018-10-19T17:34:27.305Z,15.80
2018-10-19T17:36:55.776Z,15.80
2018-10-19T17:39:24.199Z,15.70
2018-10-19T17:41:52.537Z,15.90
2018-10-19T17:44:20.986Z,15.60
2018-10-19T17:46:49.354Z,15.50
2018-10-19T17:49:17.728Z,15.40
2018-10-19T17:51:46.123Z,15.40
2018-10-19T17:54:14.917Z,15.30
2018-10-19T17:56:43.226Z,15.40
2018-10-19T17:59:11.651Z,15.60
2018-10-19T18:01:40.047Z,15.30
2018-10-19T18:04:08.427Z,15.40
2018-10-19T18:06:36.807Z,15.50
2018-10-19T18:09:08.520Z,15.20
2018-10-19T18:11:37.239Z,15.10
2018-10-19T18:14:06.797Z,15.10
2018-10-19T18:16:35.410Z,15.20
2018-10-19T18:19:03.826Z,15.40
2018-10-19T18:21:32.317Z,15.40
2018-10-19T18:24:00.618Z,15.40
2018-10-19T18:26:29.017Z,15.20
2018-10-19T18:28:57.539Z,15.00
2018-10-19T18:31:26.010Z,14.90
2018-10-19T18:33:54.392Z,14.90
2018-10-19T18:36:22.864Z,14.90
2018-10-19T18:38:51.248Z,14.90
2018-10-19T18:41:19.821Z,14.90
2018-10-19T18:43:48.354Z,14.90
2018-10-19T18:46:16.767Z,14.90
2018-10-19T18:48:45.129Z,14.90
2018-10-19T18:51:13.513Z,14.80
2018-10-19T18:53:41.967Z,14.60
2018-10-19T18:56:10.378Z,14.20
2018-10-19T18:58:38.829Z,14.00
2018-10-19T19:01:07.462Z,14.00
2018-10-19T19:03:35.867Z,14.20
2018-10-19T19:06:04.549Z,14.40
2018-10-19T19:08:32.956Z,14.50
2018-10-19T19:11:01.368Z,14.50
2018-10-19T19:13:31.169Z,14.60
2018-10-19T19:16:00.089Z,14.60
2018-10-19T19:18:28.522Z,14.60
2018-10-19T19:20:57.324Z,14.60
2018-10-19T19:23:25.710Z,14.60
2018-10-19T19:25:59.409Z,14.50
2018-10-19T19:28:27.806Z,14.50
2018-10-19T19:30:56.210Z,14.40
2018-10-19T19:33:30.135Z,14.30
2018-10-19T19:35:58.673Z,14.00
2018-10-19T19:38:27.086Z,13.80
2018-10-19T19:41:00.776Z,13.60
2018-10-19T19:43:29.115Z,13.40
2018-10-19T19:45:57.651Z,13.30
2018-10-19T19:48:31.490Z,13.30
2018-10-19T19:50:59.967Z,13.30
2018-10-19T19:53:28.329Z,13.30
2018-10-19T19:55:56.926Z,13.30
2018-10-19T19:58:25.258Z,13.20
2018-10-19T20:00:53.991Z,13.10
2018-10-19T20:03:22.364Z,13.10
2018-10-19T20:05:50.783Z,13.20
2018-10-19T20:08:19.171Z,13.20
2018-10-19T20:10:47.649Z,13.10
2018-10-19T20:13:15.992Z,13.00
2018-10-19T20:15:44.554Z,12.90
2018-10-19T20:18:13.137Z,12.80
2018-10-19T20:20:41.503Z,12.80
2018-10-19T20:23:09.946Z,12.80
2018-10-19T20:25:38.253Z,12.80
2018-10-19T20:28:06.689Z,12.80
2018-10-19T20:30:35.075Z,12.90
2018-10-19T20:33:04.064Z,13.00
2018-10-19T20:35:32.438Z,13.00
2018-10-19T20:38:00.877Z,13.10
2018-10-19T20:40:29.253Z,13.00
2018-10-19T20:42:58.622Z,12.80
2018-10-19T20:45:27.062Z,12.70
2018-10-19T20:47:55.487Z,12.70
2018-10-19T20:50:23.885Z,12.60
2018-10-19T20:52:52.483Z,12.50
2018-10-19T20:55:20.971Z,12.40
2018-10-19T20:57:49.381Z,12.40
2018-10-19T21:00:17.802Z,12.50
2018-10-19T21:02:46.195Z,12.70
2018-10-19T21:05:15.113Z,12.80
2018-10-19T21:07:43.462Z,12.80
2018-10-19T21:10:13.480Z,12.60
2018-10-19T21:12:42.148Z,12.60
2018-10-19T21:15:11.855Z,12.70
2018-10-19T21:17:40.646Z,12.60
2018-10-19T21:20:10.328Z,12.50
2018-10-19T21:22:38.869Z,12.40
2018-10-19T21:25:08.261Z,12.40
2018-10-19T21:27:37.194Z,12.30
2018-10-19T21:30:06.738Z,12.20
2018-10-19T21:32:35.098Z,12.20
2018-10-19T21:35:03.664Z,12.10
2018-10-19T21:37:31.991Z,12.00
2018-10-19T21:40:00.398Z,12.00
2018-10-19T21:42:28.803Z,12.00
2018-10-19T21:44:57.253Z,11.90
2018-10-19T21:47:25.654Z,11.90
2018-10-19T21:49:54.069Z,11.90
2018-10-19T21:52:22.475Z,12.10
2018-10-19T21:54:50.825Z,12.30
2018-10-19T21:57:19.194Z,12.30
2018-10-19T21:59:47.593Z,12.30
2018-10-19T22:02:15.987Z,12.30
2018-10-19T22:04:44.294Z,12.30
2018-10-19T22:07:12.733Z,12.40
2018-10-19T22:09:41.138Z,12.20
2018-10-19T22:12:09.646Z,12.10
2018-10-19T22:14:38.274Z,12.00
2018-10-19T22:17:06.677Z,12.00
2018-10-19T22:19:35.011Z,11.80
2018-10-19T22:22:03.382Z,11.70
2018-10-19T22:24:31.758Z,11.70
2018-10-19T22:27:00.126Z,11.70
2018-10-19T22:29:28.561Z,11.60
2018-10-19T22:31:56.901Z,11.60
2018-10-19T22:34:25.325Z,11.50
2018-10-19T22:36:53.721Z,11.40
2018-10-19T22:39:22.092Z,11.40
2018-10-19T22:41:50.430Z,11.50
2018-10-19T22:44:18.970Z,11.40
2018-10-19T22:46:47.307Z,11.40
2018-10-19T22:49:15.739Z,11.40
2018-10-19T22:51:44.122Z,11.40
2018-10-19T22:54:12.734Z,11.30
2018-10-19T22:56:41.166Z,11.40
2018-10-19T22:59:09.900Z,11.40
2018-10-19T23:01:38.433Z,11.30
2018-10-19T23:04:07.358Z,11.40
2018-10-19T23:06:35.802Z,11.40
2018-10-19T23:09:05.611Z,11.40
2018-10-19T23:11:33.942Z,11.40
2018-10-19T23:14:02.498Z,11.40
2018-10-19T23:16:30.918Z,11.40
2018-10-19T23:18:59.364Z,11.40
2018-10-19T23:21:27.691Z,11.30
2018-10-19T23:23:56.318Z,11.20
2018-10-19T23:26:24.981Z,11.10
2018-10-19T23:28:53.348Z,11.10
2018-10-19T23:31:21.831Z,11.20
2018-10-19T23:33:50.170Z,11.10
2018-10-19T23:36:18.529Z,11.10
2018-10-19T23:38:46.925Z,11.00
2018-10-19T23:41:15.482Z,11.00
2018-10-19T23:43:43.960Z,11.10
2018-10-19T23:46:12.247Z,11.00
2018-10-19T23:48:40.573Z,11.00
2018-10-19T23:51:10.275Z,11.20
2018-10-19T23:53:38.730Z,11.20
2018-10-19T23:56:07.158Z,11.20
2018-10-19T23:58:35.498Z,11.10
